Time;durP1;ratioP1;P1;durP2;ratioP2;P2;SDS_P1;SDS_P2;PMS_P1;PMS_P2;Temp;Humidity;BMP_temperature;BMP_pressure;BME280_temperature;BME280_humidity;BME280_pressure;Samples;Min_cycle;Max_cycle;Signal;HPM_P1;HPM_P2
2022/07/29 02:48:37;;;;;;;6.03;4.90;;;13.50;99.90;;;;;;4323145;29;20046;-71
2022/07/29 02:51:16;;;;;;;5.70;5.07;;;13.40;99.90;;;;;;4925473;29;20413;-71
2022/07/29 02:53:45;;;;;;;6.03;5.40;;;13.50;99.90;;;;;;4913145;29;20047;-69
2022/07/29 02:56:14;;;;;;;7.60;4.82;;;13.50;99.90;;;;;;4910641;29;20048;-71
2022/07/29 02:58:50;;;;;;;9.73;6.18;;;13.50;99.90;;;;;;4913976;29;20625;-71
2022/07/29 03:01:32;;;;;;;5.75;5.15;;;13.50;99.90;;;;;;4913546;29;20098;-71
2022/07/29 03:04:04;;;;;;;6.60;5.00;;;13.50;99.90;;;;;;4913238;29;20048;-71
2022/07/29 03:06:32;;;;;;;5.43;4.60;;;13.50;99.90;;;;;;4916333;29;20056;-71
2022/07/29 03:08:58;;;;;;;;;;;13.60;99.90;;;;;;4932715;29;20121;-71
2022/07/29 03:11:25;;;;;;;9.48;5.63;;;13.60;99.90;;;;;;4935616;29;19923;-71
2022/07/29 03:13:52;;;;;;;7.93;4.72;;;13.60;99.90;;;;;;4919325;29;20035;-71
2022/07/29 03:16:19;;;;;;;6.45;4.93;;;13.50;99.90;;;;;;4919955;29;20043;-71
2022/07/29 03:18:46;;;;;;;7.32;5.28;;;13.50;99.90;;;;;;4919327;29;20051;-71
2022/07/29 03:21:12;;;;;;;6.53;4.82;;;13.50;99.90;;;;;;4936972;29;20087;-71
2022/07/29 03:23:44;;;;;;;6.88;5.18;;;13.60;99.90;;;;;;4903613;29;20035;-71
2022/07/29 03:26:11;;;;;;;8.18;5.82;;;13.60;99.90;;;;;;4908528;29;20040;-71
2022/07/29 03:28:37;;;;;;;6.00;5.03;;;13.50;99.90;;;;;;4932786;29;20110;-71
2022/07/29 03:31:03;;;;;;;9.10;5.60;;;13.50;99.90;;;;;;4919386;29;20048;-70
2022/07/29 03:33:30;;;;;;;8.13;5.07;;;13.50;99.90;;;;;;4929451;29;20044;-71
2022/07/29 03:35:56;;;;;;;9.57;4.85;;;13.50;99.90;;;;;;4919621;29;20044;-69
2022/07/29 03:38:26;;;;;;;6.75;4.90;;;13.50;99.90;;;;;;4935553;29;20397;-70
2022/07/29 03:40:56;;;;;;;8.48;5.50;;;13.50;99.90;;;;;;4916371;29;20092;-71
2022/07/29 03:43:24;;;;;;;8.13;4.55;;;13.50;99.90;;;;;;4915090;29;20102;-71
2022/07/29 03:45:52;;;;;;;;;;;13.50;99.90;;;;;;4904639;29;20114;-70
2022/07/29 03:48:21;;;;;;;7.78;4.93;;;13.50;99.90;;;;;;4912672;29;19925;-69
2022/07/29 03:50:48;;;;;;;10.38;5.22;;;13.50;99.90;;;;;;4915995;29;20179;-69
2022/07/29 03:53:14;;;;;;;5.35;4.10;;;13.50;99.90;;;;;;4915012;29;20044;-70
2022/07/29 03:55:52;;;;;;;6.63;4.85;;;13.50;99.90;;;;;;4919490;29;20114;-69
2022/07/29 03:58:19;;;;;;;7.85;4.72;;;13.50;99.90;;;;;;4915968;29;20071;-69
2022/07/29 04:00:46;;;;;;;7.97;6.00;;;13.50;99.90;;;;;;4933631;29;20079;-69
2022/07/29 04:03:12;;;;;;;9.90;5.82;;;13.50;99.90;;;;;;4918806;29;20051;-69
2022/07/29 04:05:38;;;;;;;6.38;4.82;;;13.50;99.90;;;;;;4925553;29;20063;-71
2022/07/29 04:08:05;;;;;;;6.05;4.43;;;13.50;99.90;;;;;;4917428;29;20043;-69
2022/07/29 04:10:31;;;;;;;8.45;5.43;;;13.50;99.90;;;;;;4919547;29;20119;-69
2022/07/29 04:12:57;;;;;;;12.00;5.00;;;13.50;99.90;;;;;;4918780;29;20044;-70
2022/07/29 04:15:23;;;;;;;6.80;4.65;;;13.50;99.90;;;;;;4932397;29;20063;-71
2022/07/29 04:17:49;;;;;;;5.60;5.03;;;13.50;99.90;;;;;;4914880;29;20036;-70
2022/07/29 04:20:14;;;;;;;7.18;5.70;;;13.50;99.90;;;;;;4906573;29;20074;-70
2022/07/29 04:22:40;;;;;;;8.63;4.78;;;13.50;99.90;;;;;;4918985;29;20047;-71
2022/07/29 04:25:07;;;;;;;8.52;5.57;;;13.50;99.90;;;;;;4918856;29;20059;-70
2022/07/29 04:27:32;;;;;;;4.95;4.45;;;13.50;99.90;;;;;;4917394;29;20052;-70
2022/07/29 04:29:58;;;;;;;14.18;5.30;;;13.50;99.90;;;;;;4919058;29;20039;-70
2022/07/29 04:32:25;;;;;;;5.13;4.22;;;13.50;99.90;;;;;;4934524;29;20466;-70
2022/07/29 04:34:51;;;;;;;7.15;4.80;;;13.50;99.90;;;;;;4918952;29;20422;-70
2022/07/29 04:37:16;;;;;;;9.10;5.18;;;13.50;99.90;;;;;;4916395;29;20066;-70
2022/07/29 04:39:42;;;;;;;6.93;5.38;;;13.60;99.90;;;;;;4918890;29;20058;-70
2022/07/29 04:42:08;;;;;;;5.13;4.20;;;13.60;99.90;;;;;;4918880;29;20064;-70
2022/07/29 04:44:34;;;;;;;9.45;5.45;;;13.60;99.90;;;;;;4918728;29;20499;-71
2022/07/29 04:46:59;;;;;;;10.68;4.97;;;13.60;99.90;;;;;;4914182;29;20044;-70
2022/07/29 04:49:25;;;;;;;6.22;4.15;;;13.60;99.90;;;;;;4924527;29;20119;-70
2022/07/29 04:51:51;;;;;;;6.43;5.25;;;13.60;99.90;;;;;;4934090;29;20067;-70
2022/07/29 04:54:17;;;;;;;8.52;4.93;;;13.60;99.90;;;;;;4930051;29;20080;-71
2022/07/29 04:56:43;;;;;;;6.72;5.28;;;13.60;99.90;;;;;;4947808;29;20036;-71
2022/07/29 04:59:09;;;;;;;11.20;6.05;;;13.70;99.90;;;;;;4931058;29;20091;-71
2022/07/29 05:01:34;;;;;;;10.07;4.95;;;13.70;99.90;;;;;;4933072;29;20126;-71
2022/07/29 05:04:00;;;;;;;8.48;4.93;;;13.70;99.90;;;;;;4950355;28;20043;-71
2022/07/29 05:06:26;;;;;;;4.72;4.32;;;13.70;99.90;;;;;;4933668;29;20119;-70
2022/07/29 05:08:52;;;;;;;9.95;5.78;;;13.80;99.90;;;;;;4950034;28;20107;-71
2022/07/29 05:11:18;;;;;;;5.07;4.55;;;13.80;99.90;;;;;;4947649;29;20046;-71
2022/07/29 05:13:43;;;;;;;8.15;4.53;;;13.80;99.90;;;;;;4950892;28;20091;-71
2022/07/29 05:16:09;;;;;;;5.22;4.47;;;13.90;99.90;;;;;;4933036;29;20092;-71
2022/07/29 05:18:35;;;;;;;8.15;4.97;;;13.90;99.90;;;;;;4935571;29;20485;-71
2022/07/29 05:21:01;;;;;;;7.53;5.75;;;14.00;99.90;;;;;;4946417;28;20065;-71
2022/07/29 05:23:26;;;;;;;6.22;4.78;;;14.00;99.90;;;;;;4927296;29;20043;-72
2022/07/29 05:25:52;;;;;;;8.40;4.65;;;14.00;99.90;;;;;;4932249;29;20127;-72
2022/07/29 05:28:19;;;;;;;8.20;5.05;;;14.00;99.90;;;;;;4933411;29;20043;-72
2022/07/29 05:30:45;;;;;;;13.27;5.50;;;14.10;99.90;;;;;;4945536;28;20040;-72
2022/07/29 05:33:11;;;;;;;11.27;5.53;;;14.10;99.90;;;;;;4923058;29;20469;-72
2022/07/29 05:35:37;;;;;;;7.75;5.57;;;14.10;99.90;;;;;;4931231;29;20320;-72
2022/07/29 05:38:03;;;;;;;8.52;5.65;;;14.20;99.90;;;;;;4945908;28;20141;-72
2022/07/29 05:40:29;;;;;;;10.43;5.30;;;14.20;99.90;;;;;;4949601;28;20047;-72
2022/07/29 05:42:55;;;;;;;6.43;5.10;;;14.20;99.90;;;;;;4947422;28;20386;-72
2022/07/29 05:45:21;;;;;;;8.15;5.15;;;14.20;99.90;;;;;;4932588;29;20043;-75
2022/07/29 05:47:47;;;;;;;6.20;4.80;;;14.30;99.90;;;;;;4933012;29;20485;-72
2022/07/29 05:50:13;;;;;;;9.68;5.18;;;14.30;99.90;;;;;;4932640;29;20048;-73
2022/07/29 05:52:39;;;;;;;6.57;4.65;;;14.30;99.90;;;;;;4931454;29;20135;-72
2022/07/29 05:55:05;;;;;;;11.65;5.22;;;14.40;99.90;;;;;;4925613;29;20118;-72
2022/07/29 05:57:32;;;;;;;11.95;5.30;;;14.40;99.90;;;;;;4935918;28;20082;-73
2022/07/29 05:59:57;;;;;;;7.07;4.18;;;14.40;99.90;;;;;;4899835;29;20096;-73
2022/07/29 06:02:23;;;;;;;5.97;5.20;;;14.40;99.90;;;;;;4923000;29;20048;-73
2022/07/29 06:04:49;;;;;;;6.50;4.38;;;14.50;99.90;;;;;;4945426;28;20044;-73
2022/07/29 06:07:16;;;;;;;7.47;4.88;;;14.50;99.90;;;;;;4931675;29;20055;-74
2022/07/29 06:09:42;;;;;;;14.73;13.43;;;14.50;99.90;;;;;;4925456;29;20075;-75
2022/07/29 06:12:08;;;;;;;9.73;5.13;;;14.50;99.90;;;;;;4933111;29;20114;-74
2022/07/29 06:14:35;;;;;;;9.80;5.00;;;14.60;99.90;;;;;;4932410;29;20111;-74
2022/07/29 06:17:01;;;;;;;9.80;5.35;;;14.60;99.90;;;;;;4915104;29;20050;-74
2022/07/29 06:19:40;;;;;;;5.57;4.43;;;14.60;99.90;;;;;;4948721;28;20043;-74
2022/07/29 06:22:21;;;;;;;7.95;4.95;;;14.70;99.90;;;;;;4932770;29;20044;-74
2022/07/29 06:25:13;;;;;;;9.75;4.82;;;14.80;99.90;;;;;;4933923;29;20035;-74
2022/07/29 06:27:39;;;;;;;9.48;5.32;;;14.90;99.90;;;;;;4926252;29;20131;-74
2022/07/29 06:30:07;;;;;;;6.50;5.45;;;14.90;99.90;;;;;;4947126;28;20130;-74
2022/07/29 06:32:33;;;;;;;10.27;4.70;;;15.00;99.90;;;;;;4945290;28;20060;-74
2022/07/29 06:34:59;;;;;;;5.47;4.07;;;15.10;99.90;;;;;;4929915;29;20493;-74
2022/07/29 06:37:24;;;;;;;8.73;4.75;;;15.10;99.90;;;;;;4948822;28;20068;-74
2022/07/29 06:40:59;;;;;;;6.25;4.00;;;15.20;99.90;;;;;;4928849;29;20594;-75
2022/07/29 06:42:43;;;;;;;7.38;4.53;;;15.20;99.90;;;;;;4927414;29;20063;-74
2022/07/29 06:45:09;;;;;;;6.40;4.30;;;15.20;99.90;;;;;;4909720;29;20040;-75
2022/07/29 06:47:35;;;;;;;4.78;3.90;;;15.20;99.90;;;;;;4929013;29;20122;-76
2022/07/29 06:50:01;;;;;;;7.75;4.97;;;15.20;99.90;;;;;;4932166;29;20446;-77
2022/07/29 06:52:26;;;;;;;12.68;5.72;;;15.30;99.90;;;;;;4949799;28;20040;-75
2022/07/29 06:54:53;;;;;;;7.97;5.10;;;15.30;99.90;;;;;;4935030;29;20047;-74
2022/07/29 06:57:18;;;;;;;8.38;4.97;;;15.30;99.90;;;;;;4933295;29;20122;-74
2022/07/29 06:59:45;;;;;;;14.43;5.10;;;15.40;99.90;;;;;;4948445;28;20505;-74
2022/07/29 07:02:11;;;;;;;13.65;5.78;;;15.40;99.90;;;;;;4936049;29;20039;-74
2022/07/29 07:04:37;;;;;;;9.57;5.35;;;15.40;99.90;;;;;;4953246;28;20070;-73
2022/07/29 07:07:03;;;;;;;7.20;4.50;;;15.40;99.90;;;;;;4938801;29;20490;-72
2022/07/29 07:09:28;;;;;;;5.18;4.43;;;15.40;99.90;;;;;;4919653;29;20075;-73
2022/07/29 07:11:54;;;;;;;6.75;4.60;;;15.40;99.90;;;;;;4932819;29;20035;-73
2022/07/29 07:14:20;;;;;;;8.85;4.97;;;15.40;99.90;;;;;;4932453;29;20044;-73
2022/07/29 07:16:46;;;;;;;7.28;4.88;;;15.50;99.90;;;;;;4933003;29;20099;-74
2022/07/29 07:19:11;;;;;;;12.00;4.63;;;15.50;99.90;;;;;;4932491;29;20043;-73
2022/07/29 07:21:37;;;;;;;6.43;4.78;;;15.60;99.90;;;;;;4935759;29;20055;-73
2022/07/29 07:24:03;;;;;;;9.18;5.22;;;15.70;99.90;;;;;;4932442;29;20116;-74
2022/07/29 07:26:29;;;;;;;6.90;4.93;;;15.70;99.90;;;;;;4944535;29;20043;-72
2022/07/29 07:28:55;;;;;;;7.38;4.85;;;15.70;99.90;;;;;;4917542;29;20131;-73
2022/07/29 07:31:21;;;;;;;7.35;4.53;;;15.80;99.90;;;;;;4931093;29;20062;-74
2022/07/29 07:33:46;;;;;;;6.00;4.57;;;15.80;99.90;;;;;;4917984;29;20386;-73
2022/07/29 07:36:12;;;;;;;8.65;5.75;;;15.90;99.90;;;;;;4926808;29;20101;-73
2022/07/29 07:38:38;;;;;;;6.38;4.63;;;16.00;99.90;;;;;;4950662;28;20549;-72
2022/07/29 07:41:03;;;;;;;9.75;4.97;;;16.10;99.90;;;;;;4931988;29;21672;-71
2022/07/29 07:43:29;;;;;;;9.80;5.50;;;16.10;99.90;;;;;;4931290;29;20032;-72
2022/07/29 07:45:55;;;;;;;4.95;4.43;;;16.20;99.90;;;;;;4942140;28;20409;-73
2022/07/29 07:48:21;;;;;;;7.60;4.65;;;16.20;99.90;;;;;;4933821;29;20055;-73
2022/07/29 07:50:46;;;;;;;9.38;5.13;;;16.40;99.90;;;;;;4931578;29;20044;-75
2022/07/29 07:53:12;;;;;;;6.50;4.60;;;16.50;99.90;;;;;;4914347;29;20158;-73
2022/07/29 07:55:42;;;;;;;9.57;5.63;;;16.60;99.90;;;;;;4927344;29;20040;-73
2022/07/29 07:58:09;;;;;;;18.38;5.32;;;16.80;99.90;;;;;;4927261;29;20071;-73
2022/07/29 08:00:35;;;;;;;7.88;4.75;;;16.90;99.90;;;;;;4929488;29;20150;-72
2022/07/29 08:03:01;;;;;;;7.55;4.72;;;17.00;99.90;;;;;;4899648;29;20598;-75
2022/07/29 08:05:30;;;;;;;10.73;5.10;;;17.20;99.90;;;;;;4932122;29;20047;-74
2022/07/29 08:07:55;;;;;;;9.60;5.20;;;17.30;99.90;;;;;;4933529;29;20043;-75
2022/07/29 08:13:07;;;;;;;13.70;5.47;;;17.50;99.90;;;;;;4934203;29;20036;-76
2022/07/29 08:15:33;;;;;;;8.15;4.85;;;17.60;99.90;;;;;;4934831;29;20039;-76
2022/07/29 08:18:00;;;;;;;6.18;5.15;;;17.70;99.90;;;;;;4932678;29;20485;-74
2022/07/29 08:20:26;;;;;;;9.88;4.68;;;17.70;99.90;;;;;;4928662;29;20040;-76
2022/07/29 08:22:53;;;;;;;12.40;5.20;;;17.70;99.90;;;;;;4913420;29;20559;-75
2022/07/29 08:25:20;;;;;;;13.20;5.70;;;17.70;99.90;;;;;;4934372;29;20799;-76
2022/07/29 08:27:47;;;;;;;8.05;4.75;;;17.60;99.90;;;;;;4930493;29;20052;-75
2022/07/29 08:30:14;;;;;;;11.18;5.60;;;17.60;99.90;;;;;;4933772;29;20036;-76
2022/07/29 08:32:40;;;;;;;8.60;5.57;;;17.60;99.90;;;;;;4933849;29;20035;-77
2022/07/29 08:35:06;;;;;;;6.50;5.25;;;17.50;99.90;;;;;;4933571;29;20393;-75
2022/07/29 08:37:31;;;;;;;6.88;5.32;;;17.60;99.90;;;;;;4950538;28;20087;-77
2022/07/29 08:39:57;;;;;;;5.30;4.80;;;17.50;99.90;;;;;;4950321;28;20776;-76
2022/07/29 08:42:23;;;;;;;10.57;5.38;;;17.60;99.90;;;;;;4933911;29;20861;-76
2022/07/29 08:44:50;;;;;;;9.02;4.78;;;17.60;99.90;;;;;;4931033;29;20059;-75
2022/07/29 08:47:16;;;;;;;10.32;5.45;;;17.50;99.90;;;;;;4933944;29;20057;-76
2022/07/29 08:49:43;;;;;;;8.82;5.78;;;17.60;99.90;;;;;;4914156;29;20051;-76
2022/07/29 08:52:12;;;;;;;7.10;5.00;;;17.60;99.90;;;;;;4907684;29;20036;-75
2022/07/29 08:54:42;;;;;;;5.05;4.35;;;17.60;99.90;;;;;;4930285;29;20073;-75
2022/07/29 08:57:10;;;;;;;11.90;5.32;;;17.60;99.90;;;;;;4921854;29;20486;-76
2022/07/29 08:59:39;;;;;;;6.85;4.75;;;17.70;99.90;;;;;;4913768;29;20079;-75
2022/07/29 09:02:10;;;;;;;12.90;4.97;;;17.80;99.90;;;;;;4917916;29;20071;-76
2022/07/29 09:04:36;;;;;;;10.45;4.97;;;17.90;99.90;;;;;;4907803;29;20078;-76
2022/07/29 09:07:04;;;;;;;7.57;4.90;;;18.00;99.90;;;;;;4927854;29;20051;-77
2022/07/29 09:09:30;;;;;;;10.32;4.95;;;18.10;99.90;;;;;;4929188;29;20103;-75
2022/07/29 09:11:55;;;;;;;5.03;4.45;;;18.20;99.90;;;;;;4916575;29;20497;-76
2022/07/29 09:14:21;;;;;;;8.73;4.88;;;18.30;99.90;;;;;;4917813;29;20124;-77
2022/07/29 09:16:56;;;;;;;6.03;4.72;;;18.40;99.90;;;;;;4915695;29;20122;-75
2022/07/29 09:19:29;;;;;;;14.23;5.07;;;18.50;99.90;;;;;;4917929;29;20417;-77
2022/07/29 09:22:02;;;;;;;12.35;5.35;;;18.60;99.90;;;;;;4917342;29;20044;-77
2022/07/29 09:24:34;;;;;;;8.30;5.18;;;18.70;99.90;;;;;;4917684;29;20123;-77
2022/07/29 09:27:01;;;;;;;7.20;5.20;;;18.90;99.90;;;;;;4915780;29;20043;-76
2022/07/29 09:29:27;;;;;;;15.25;5.53;;;18.90;99.90;;;;;;4917181;29;20059;-77
2022/07/29 09:31:54;;;;;;;7.93;5.38;;;19.00;99.90;;;;;;4915638;29;20036;-75
2022/07/29 09:34:29;;;;;;;10.77;6.20;;;19.10;99.90;;;;;;4917725;29;20047;-77
2022/07/29 09:36:55;;;;;;;8.20;4.55;;;19.10;99.90;;;;;;4901845;29;20051;-76
2022/07/29 09:39:48;;;;;;;5.53;4.85;;;19.20;99.90;;;;;;4916561;29;20413;-75
2022/07/29 09:42:38;;;;;;;8.50;5.40;;;19.20;99.90;;;;;;4918503;29;20449;-73
2022/07/29 09:45:29;;;;;;;10.63;5.15;;;19.10;99.90;;;;;;4902545;29;20048;-76
2022/07/29 09:47:57;;;;;;;7.63;4.80;;;19.20;99.90;;;;;;4915063;29;20074;-76
2022/07/29 09:50:34;;;;;;;10.90;5.63;;;19.20;99.90;;;;;;4942781;28;20044;-76
2022/07/29 09:52:59;;;;;;;10.70;6.05;;;19.30;99.90;;;;;;4943967;28;20091;-76
2022/07/29 09:55:25;;;;;;;6.90;4.93;;;19.30;99.90;;;;;;4931904;29;20063;-78
2022/07/29 09:57:51;;;;;;;6.93;5.50;;;19.30;99.90;;;;;;4922686;29;20055;-76
2022/07/29 10:00:19;;;;;;;10.80;5.43;;;19.40;99.90;;;;;;4931227;29;20552;-75
2022/07/29 10:02:46;;;;;;;9.63;4.60;;;19.40;99.90;;;;;;4914471;29;20043;-77
2022/07/29 10:05:20;;;;;;;9.45;4.55;;;19.50;99.90;;;;;;4923997;29;20074;-77
2022/07/29 10:07:52;;;;;;;8.05;5.05;;;19.60;99.90;;;;;;4927184;29;20043;-76
2022/07/29 10:10:23;;;;;;;8.50;4.75;;;19.70;99.90;;;;;;4947667;28;20054;-73
2022/07/29 10:12:57;;;;;;;15.27;5.15;;;19.80;99.90;;;;;;4946892;29;20036;-75
2022/07/29 10:15:24;;;;;;;9.18;4.57;;;19.90;99.90;;;;;;4932711;29;20039;-75
2022/07/29 10:17:52;;;;;;;12.90;5.60;;;20.10;99.90;;;;;;4949991;28;20040;-75
2022/07/29 10:20:19;;;;;;;11.30;6.25;;;20.20;99.90;;;;;;4935298;29;20098;-75
2022/07/29 10:22:46;;;;;;;13.60;4.70;;;20.20;99.90;;;;;;4916347;29;20079;-74
2022/07/29 10:25:13;;;;;;;8.63;4.63;;;20.40;99.90;;;;;;4936165;29;20035;-75
2022/07/29 10:27:39;;;;;;;6.47;4.93;;;20.40;99.90;;;;;;4936856;29;20130;-75
2022/07/29 10:30:06;;;;;;;10.32;5.43;;;20.40;99.90;;;;;;4936550;29;20158;-75
2022/07/29 10:32:53;;;;;;;6.93;5.03;;;20.40;99.90;;;;;;4949903;28;20061;-75
2022/07/29 10:35:39;;;;;;;6.93;4.47;;;20.40;99.90;;;;;;4923263;29;20468;-74
2022/07/29 10:38:19;;;;;;;8.40;4.90;;;20.50;99.90;;;;;;4927992;29;20048;-75
2022/07/29 10:43:51;;;;;;;8.25;5.38;;;20.50;99.90;;;;;;4917689;29;20417;-75
2022/07/29 10:46:18;;;;;;;10.52;5.68;;;20.40;99.90;;;;;;4944051;28;20063;-75
2022/07/29 10:49:20;;;;;;;7.38;5.15;;;20.40;99.90;;;;;;4952004;28;20047;-76
2022/07/29 10:52:19;;;;;;;9.55;5.57;;;20.20;99.90;;;;;;4932091;29;20083;-75
2022/07/29 10:54:48;;;;;;;12.98;5.65;;;20.20;99.90;;;;;;4908229;29;20055;-75
2022/07/29 10:57:20;;;;;;;7.20;5.05;;;20.00;99.90;;;;;;4935188;29;20054;-75
2022/07/29 11:00:10;;;;;;;10.13;6.30;;;20.00;99.90;;;;;;4924989;29;20043;-75
2022/07/29 11:02:36;;;;;;;11.30;5.85;;;20.00;99.90;;;;;;4919031;29;20052;-74
2022/07/29 11:05:05;;;;;;;14.23;5.95;;;19.90;99.90;;;;;;4959064;28;20044;-74
2022/07/29 11:07:34;;;;;;;9.15;5.93;;;19.90;99.90;;;;;;4923054;29;20091;-75
2022/07/29 11:10:12;;;;;;;8.50;6.30;;;19.90;99.90;;;;;;4929548;29;20067;-74
2022/07/29 11:12:37;;;;;;;12.88;5.43;;;19.90;99.90;;;;;;4952218;28;20157;-74
2022/07/29 11:15:08;;;;;;;11.57;5.45;;;19.90;99.90;;;;;;4919597;29;20067;-75
2022/07/29 11:17:52;;;;;;;7.57;5.13;;;20.00;99.90;;;;;;4936166;29;20043;-74
2022/07/29 11:20:44;;;;;;;6.60;5.75;;;19.90;99.90;;;;;;4943698;28;20502;-75
2022/07/29 11:23:31;;;;;;;7.82;4.53;;;19.90;99.90;;;;;;4909525;29;20098;-74
2022/07/29 11:26:22;;;;;;;7.82;5.93;;;19.90;99.90;;;;;;4924741;29;20067;-74
2022/07/29 11:28:53;;;;;;;12.27;6.20;;;19.80;99.90;;;;;;4933624;29;20043;-74
2022/07/29 11:31:32;;;;;;;7.90;5.60;;;19.80;99.90;;;;;;4917413;29;20523;-74
2022/07/29 11:34:19;;;;;;;14.32;6.22;;;19.90;99.90;;;;;;4933238;29;20054;-75
2022/07/29 11:37:21;;;;;;;8.70;5.63;;;19.90;99.90;;;;;;4935017;29;20047;-77
2022/07/29 11:39:56;;;;;;;7.25;6.15;;;20.00;99.90;;;;;;4862361;29;20084;-77
2022/07/29 11:42:24;;;;;;;9.48;5.03;;;20.00;99.90;;;;;;4921402;29;20079;-77
2022/07/29 11:45:02;;;;;;;8.80;4.93;;;20.00;99.90;;;;;;4934995;29;20077;-77
2022/07/29 11:47:29;;;;;;;12.35;6.07;;;20.00;99.90;;;;;;4934030;29;20051;-76
2022/07/29 11:49:59;;;;;;;8.67;6.20;;;20.10;99.90;;;;;;4916407;29;20048;-77
2022/07/29 11:52:42;;;;;;;10.38;6.15;;;20.10;99.90;;;;;;4900951;29;20059;-76
2022/07/29 11:55:10;;;;;;;11.98;5.97;;;20.20;99.90;;;;;;4900536;29;20127;-77
2022/07/29 11:57:36;;;;;;;8.90;5.22;;;20.30;99.90;;;;;;4901550;29;20079;-76
2022/07/29 12:00:05;;;;;;;12.20;5.43;;;20.30;99.90;;;;;;4913741;29;20059;-74
2022/07/29 12:02:43;;;;;;;24.77;5.75;;;20.40;99.90;;;;;;4889491;29;20130;-77
2022/07/29 12:05:13;;;;;;;10.57;5.68;;;20.50;99.90;;;;;;4918858;29;20054;-77
2022/07/29 12:07:39;;;;;;;9.75;5.63;;;20.60;99.90;;;;;;4917571;29;20163;-77
2022/07/29 12:10:06;;;;;;;13.02;6.15;;;20.60;99.90;;;;;;4930379;29;20035;-76
2022/07/29 12:12:33;;;;;;;9.75;5.30;;;20.70;99.90;;;;;;4913460;29;20142;-76
2022/07/29 12:15:19;;;;;;;10.80;5.60;;;20.70;99.90;;;;;;4917718;29;20075;-75
2022/07/29 12:17:45;;;;;;;11.27;6.07;;;20.90;99.90;;;;;;4913200;29;20043;-76
2022/07/29 12:20:12;;;;;;;32.85;6.82;;;21.10;99.90;;;;;;4933407;29;20171;-78
2022/07/29 12:22:43;;;;;;;10.60;6.32;;;21.20;99.90;;;;;;4918572;29;20047;-76
2022/07/29 12:25:18;;;;;;;10.65;5.97;;;21.30;99.90;;;;;;4930110;29;20056;-76
2022/07/29 12:27:47;;;;;;;8.85;5.70;;;21.40;99.90;;;;;;4904869;29;20192;-75
2022/07/29 12:30:16;;;;;;;8.48;6.03;;;21.50;99.90;;;;;;4899544;29;20051;-77
2022/07/29 12:32:44;;;;;;;18.45;6.00;;;21.60;99.90;;;;;;4890025;29;20048;-77
2022/07/29 12:35:16;;;;;;;9.35;6.13;;;21.60;99.90;;;;;;4915292;29;20048;-77
2022/07/29 12:37:44;;;;;;;12.52;6.18;;;21.60;99.90;;;;;;4916480;29;20051;-77
2022/07/29 12:40:11;;;;;;;;;;;21.60;99.90;;;;;;4901686;29;20047;-77
2022/07/29 12:42:37;;;;;;;6.15;5.55;;;21.60;99.90;;;;;;4900812;29;19919;-77
2022/07/29 12:45:04;;;;;;;9.80;5.80;;;21.60;99.90;;;;;;4902537;29;20044;-76
2022/07/29 12:47:30;;;;;;;11.55;6.15;;;21.60;99.90;;;;;;4916676;29;20044;-73
2022/07/29 12:50:17;;;;;;;15.32;6.38;;;21.60;99.90;;;;;;4907587;29;20036;-73
2022/07/29 12:52:44;;;;;;;12.85;4.68;;;21.70;99.90;;;;;;4917194;29;20048;-73
2022/07/29 12:55:11;;;;;;;11.38;5.65;;;21.70;99.90;;;;;;4917241;29;20409;-74
2022/07/29 12:57:54;;;;;;;18.20;5.80;;;21.80;99.90;;;;;;4933842;29;20117;-73
2022/07/29 13:01:09;;;;;;;8.02;6.50;;;21.90;99.90;;;;;;4915635;29;20062;-73
2022/07/29 13:03:53;;;;;;;6.75;5.80;;;21.80;99.90;;;;;;4901076;29;20123;-75
2022/07/29 13:06:45;;;;;;;8.27;5.45;;;21.80;99.90;;;;;;4916562;29;20039;-73
2022/07/29 13:09:18;;;;;;;13.45;5.93;;;21.80;99.90;;;;;;4933265;29;20498;-73
2022/07/29 13:11:49;;;;;;;19.65;6.93;;;21.80;99.90;;;;;;4909556;29;20389;-74
2022/07/29 13:14:33;;;;;;;12.20;5.35;;;21.70;99.90;;;;;;4908423;29;20454;-75
2022/07/29 13:17:00;;;;;;;8.15;5.65;;;21.90;99.90;;;;;;4921950;29;20532;-74
2022/07/29 13:19:33;;;;;;;13.25;7.18;;;22.00;99.90;;;;;;4917589;29;20043;-75
2022/07/29 13:21:59;;;;;;;11.15;6.18;;;22.20;99.90;;;;;;4913011;29;20043;-74
2022/07/29 13:24:25;;;;;;;11.55;6.30;;;22.40;99.90;;;;;;4914942;29;20046;-75
2022/07/29 13:26:51;;;;;;;14.63;6.30;;;22.70;99.90;;;;;;4904396;29;20079;-76
2022/07/29 13:29:17;;;;;;;7.82;6.15;;;22.70;99.90;;;;;;4913815;29;20482;-76
2022/07/29 13:31:43;;;;;;;14.23;6.03;;;22.70;99.90;;;;;;4916336;29;20062;-76
2022/07/29 13:34:09;;;;;;;11.73;6.10;;;22.70;99.90;;;;;;4921855;29;20455;-76
2022/07/29 13:36:35;;;;;;;12.20;6.90;;;22.60;99.90;;;;;;4901607;29;20078;-76
2022/07/29 13:39:02;;;;;;;8.32;5.55;;;22.50;99.90;;;;;;4911281;29;20039;-79
2022/07/29 13:41:28;;;;;;;8.45;7.10;;;22.50;99.90;;;;;;4913792;29;20059;-73
2022/07/29 13:43:54;;;;;;;8.32;5.22;;;22.50;99.90;;;;;;4932681;29;20119;-76
2022/07/29 13:46:19;;;;;;;7.20;5.68;;;22.50;99.90;;;;;;4916830;29;20031;-76
2022/07/29 13:48:45;;;;;;;34.22;6.10;;;22.50;99.90;;;;;;4925864;29;20063;-79
2022/07/29 13:51:11;;;;;;;14.48;5.55;;;22.40;99.90;;;;;;4925317;29;20082;-76
2022/07/29 13:53:37;;;;;;;21.45;6.82;;;22.40;99.90;;;;;;4946022;29;20032;-76
2022/07/29 13:56:05;;;;;;;9.25;6.10;;;22.30;99.90;;;;;;4947577;28;20512;-75
2022/07/29 13:58:33;;;;;;;10.35;5.93;;;22.40;99.90;;;;;;4932891;29;20044;-75
2022/07/29 14:01:00;;;;;;;8.38;5.88;;;22.50;99.90;;;;;;4932827;29;20055;-75
2022/07/29 14:03:25;;;;;;;10.45;6.22;;;22.70;99.90;;;;;;4933027;29;20067;-76
2022/07/29 14:05:51;;;;;;;11.70;6.07;;;22.60;99.90;;;;;;4948940;28;20493;-76
2022/07/29 14:08:17;;;;;;;9.77;6.38;;;22.60;99.90;;;;;;4948816;28;20474;-76
2022/07/29 14:10:43;;;;;;;16.67;6.05;;;22.70;99.90;;;;;;4946473;28;20052;-75
2022/07/29 14:13:09;;;;;;;15.10;6.07;;;22.70;99.90;;;;;;4932206;29;20559;-76
2022/07/29 14:15:35;;;;;;;9.43;5.82;;;22.80;99.90;;;;;;4949017;28;20040;-75
2022/07/29 14:18:01;;;;;;;8.70;6.03;;;22.80;99.90;;;;;;4932491;29;20046;-75
2022/07/29 14:20:29;;;;;;;12.25;6.22;;;22.70;99.90;;;;;;4948149;28;20047;-76
2022/07/29 14:22:56;;;;;;;10.02;5.25;;;22.70;99.90;;;;;;4932832;29;20043;-75
2022/07/29 14:25:22;;;;;;;8.38;5.68;;;22.70;99.90;;;;;;4948781;28;20126;-75
2022/07/29 14:27:48;;;;;;;12.07;6.18;;;22.70;99.90;;;;;;4929126;29;20077;-75
2022/07/29 14:30:14;;;;;;;7.95;4.88;;;22.70;99.90;;;;;;4927872;29;20075;-72
2022/07/29 14:32:40;;;;;;;8.75;6.15;;;22.70;99.90;;;;;;4937106;29;20043;-75
2022/07/29 14:35:06;;;;;;;7.57;5.18;;;22.70;99.90;;;;;;4939080;29;20417;-75
2022/07/29 14:37:32;;;;;;;9.10;5.22;;;22.60;99.90;;;;;;4932353;29;20059;-75
2022/07/29 14:40:01;;;;;;;7.88;5.75;;;22.70;99.90;;;;;;4932604;29;20445;-75
2022/07/29 14:42:27;;;;;;;5.72;5.10;;;22.60;99.90;;;;;;4927402;29;20048;-75
2022/07/29 14:44:53;;;;;;;8.60;6.50;;;22.70;99.90;;;;;;4923657;29;20047;-75
2022/07/29 14:47:19;;;;;;;8.90;5.90;;;22.60;99.90;;;;;;4936283;29;20085;-74
2022/07/29 14:49:45;;;;;;;6.30;5.00;;;22.60;99.90;;;;;;4909606;29;20060;-75
2022/07/29 14:52:10;;;;;;;8.00;5.18;;;22.60;99.90;;;;;;4911144;29;20154;-75
2022/07/29 14:54:36;;;;;;;9.02;5.30;;;22.60;99.90;;;;;;4909195;29;20042;-75
2022/07/29 14:57:02;;;;;;;5.32;4.50;;;22.60;99.70;;;;;;4910420;29;20115;-75
2022/07/29 14:59:29;;;;;;;8.48;5.47;;;22.60;99.90;;;;;;4918932;29;20051;-75
2022/07/29 15:01:55;;;;;;;5.32;4.82;;;22.70;99.90;;;;;;4929813;29;20044;-76
2022/07/29 15:04:21;;;;;;;7.43;5.05;;;22.80;99.80;;;;;;4914429;29;20556;-75
2022/07/29 15:06:47;;;;;;;8.40;5.50;;;22.90;96.80;;;;;;4917058;29;20059;-75
2022/07/29 15:09:13;;;;;;;7.10;4.90;;;22.90;96.80;;;;;;4920778;29;20144;-75
2022/07/29 15:11:39;;;;;;;8.05;5.10;;;22.90;96.20;;;;;;4919564;29;20409;-74
2022/07/29 15:14:05;;;;;;;9.50;5.32;;;23.00;95.30;;;;;;4918150;29;20044;-74
2022/07/29 15:16:31;;;;;;;7.60;4.95;;;23.00;95.00;;;;;;4917632;29;20512;-73
2022/07/29 15:18:57;;;;;;;7.85;5.47;;;23.10;96.00;;;;;;4932214;29;20052;-73
2022/07/29 15:21:23;;;;;;;6.40;4.75;;;23.20;93.20;;;;;;4919607;29;20382;-74
2022/07/29 15:23:49;;;;;;;9.00;4.88;;;23.10;93.00;;;;;;4932028;29;20123;-73
2022/07/29 15:26:15;;;;;;;7.07;4.78;;;23.10;93.30;;;;;;4914316;29;20114;-75
2022/07/29 15:28:41;;;;;;;9.55;4.90;;;23.20;92.40;;;;;;4902159;29;20143;-75
2022/07/29 15:31:07;;;;;;;6.35;5.00;;;23.20;91.30;;;;;;4932031;29;20123;-74
2022/07/29 15:33:32;;;;;;;7.30;5.40;;;23.10;90.70;;;;;;4917536;29;20036;-73
2022/07/29 15:35:58;;;;;;;14.48;5.50;;;23.10;87.90;;;;;;4930215;29;20036;-74
2022/07/29 15:38:24;;;;;;;4.35;3.97;;;23.10;92.80;;;;;;4914735;29;20494;-76
2022/07/29 15:40:49;;;;;;;5.78;5.05;;;22.90;93.50;;;;;;4919785;29;20036;-76
2022/07/29 15:43:15;;;;;;;6.18;4.72;;;22.90;91.10;;;;;;4920007;29;20509;-75
2022/07/29 15:47:02;;;;;;;12.70;5.05;;;22.80;90.40;;;;;;4917215;29;20043;-75
2022/07/29 15:48:28;;;;;;;7.35;4.38;;;22.70;94.70;;;;;;4941796;28;20084;-75